Time;durP1;ratioP1;P1;durP2;ratioP2;P2;SDS_P1;SDS_P2;PMS_P1;PMS_P2;Temp;Humidity;BMP_temperature;BMP_pressure;BME280_temperature;BME280_humidity;BME280_pressure;Samples;Min_cycle;Max_cycle;Signal;HPM_P1;HPM_P2
2022/04/18 04:02:13;;;;;;;4.70;3.90;;;5.80;99.90;;;;;;5239365;23;21075;-74
2022/04/18 04:04:41;;;;;;;8.50;3.97;;;5.80;99.90;;;;;;5025250;28;20454;-74
2022/04/18 04:07:08;;;;;;;4.63;3.37;;;5.80;99.90;;;;;;5024708;28;20978;-74
2022/04/18 04:09:36;;;;;;;5.30;4.33;;;5.80;99.90;;;;;;5025676;28;20457;-74
2022/04/18 04:12:03;;;;;;;4.30;3.90;;;5.70;99.90;;;;;;5010082;28;20510;-74
2022/04/18 04:14:30;;;;;;;5.27;4.23;;;5.70;99.90;;;;;;5005420;28;20463;-74
2022/04/18 04:16:57;;;;;;;4.77;4.00;;;5.70;99.90;;;;;;5006127;28;20446;-74
2022/04/18 04:19:25;;;;;;;3.93;3.57;;;5.70;99.90;;;;;;5005015;28;20454;-74
2022/04/18 04:21:52;;;;;;;5.83;3.80;;;5.70;99.90;;;;;;5006897;28;20557;-75
2022/04/18 04:24:20;;;;;;;7.03;3.77;;;5.70;99.90;;;;;;5006481;28;20466;-74
2022/04/18 04:26:47;;;;;;;4.93;3.80;;;5.70;99.90;;;;;;5006056;28;20966;-75
2022/04/18 04:29:13;;;;;;;5.43;3.33;;;5.70;99.90;;;;;;5007007;28;20553;-75
2022/04/18 04:31:40;;;;;;;4.23;3.30;;;5.70;99.90;;;;;;5005991;28;20504;-74
2022/04/18 04:34:10;;;;;;;7.57;4.00;;;5.70;99.90;;;;;;5006935;28;20450;-75
2022/04/18 04:36:38;;;;;;;4.93;3.80;;;5.70;99.90;;;;;;5006189;28;20474;-75
2022/04/18 04:39:05;;;;;;;5.27;3.80;;;5.80;99.90;;;;;;5007105;28;20891;-75
2022/04/18 04:41:32;;;;;;;7.53;4.23;;;5.80;99.90;;;;;;5006456;28;20558;-75
2022/04/18 04:43:58;;;;;;;5.23;3.60;;;5.80;99.90;;;;;;5007270;28;20451;-75
2022/04/18 04:46:26;;;;;;;6.80;3.60;;;5.80;99.90;;;;;;5009801;28;20456;-75
2022/04/18 04:48:53;;;;;;;3.70;3.40;;;5.70;99.90;;;;;;5010828;28;20493;-75
2022/04/18 04:51:20;;;;;;;4.23;3.83;;;5.70;99.90;;;;;;5010216;28;20582;-75
2022/04/18 04:53:48;;;;;;;5.30;3.90;;;5.60;99.90;;;;;;5010241;28;20465;-75
2022/04/18 04:56:16;;;;;;;6.10;4.07;;;5.50;99.90;;;;;;5009647;28;20494;-75
2022/04/18 04:58:43;;;;;;;4.33;3.77;;;5.50;99.90;;;;;;5010273;28;20992;-75
2022/04/18 05:01:10;;;;;;;6.90;3.70;;;5.50;99.90;;;;;;5010542;28;20572;-75
2022/04/18 05:03:37;;;;;;;8.03;4.37;;;5.60;99.90;;;;;;5012041;28;20482;-75
2022/04/18 05:06:04;;;;;;;4.23;3.83;;;5.60;99.90;;;;;;5012236;28;20455;-75
2022/04/18 05:08:31;;;;;;;4.10;3.80;;;5.60;99.90;;;;;;5012433;28;20450;-75
2022/04/18 05:11:01;;;;;;;6.40;4.00;;;5.60;99.90;;;;;;5012163;28;20471;-75
2022/04/18 05:13:27;;;;;;;4.90;4.10;;;5.60;99.90;;;;;;5012281;28;20455;-75
2022/04/18 05:15:54;;;;;;;4.27;3.50;;;5.60;99.90;;;;;;5012473;28;20462;-75
2022/04/18 05:18:21;;;;;;;3.50;3.10;;;5.70;99.90;;;;;;5012266;28;20817;-75
2022/04/18 05:20:48;;;;;;;5.23;3.70;;;5.70;99.90;;;;;;5011943;28;20467;-76
2022/04/18 05:23:17;;;;;;;5.67;4.10;;;5.70;99.90;;;;;;4996936;28;20541;-76
2022/04/18 05:25:44;;;;;;;5.87;4.33;;;5.70;99.90;;;;;;5011726;28;20800;-75
2022/04/18 05:28:12;;;;;;;4.70;4.20;;;5.70;99.90;;;;;;5011526;28;20460;-76
2022/04/18 05:30:39;;;;;;;5.67;4.57;;;5.70;99.90;;;;;;5011660;28;20562;-76
2022/04/18 05:33:07;;;;;;;5.40;4.30;;;5.70;99.90;;;;;;5012055;28;20491;-75
2022/04/18 05:35:34;;;;;;;4.47;4.03;;;5.70;99.90;;;;;;5011221;28;20465;-75
2022/04/18 05:38:01;;;;;;;7.60;4.67;;;5.70;99.90;;;;;;5011274;28;20892;-76
2022/04/18 05:40:28;;;;;;;5.20;4.30;;;5.70;99.90;;;;;;5011736;28;20498;-76
2022/04/18 05:42:55;;;;;;;5.83;4.23;;;5.70;99.90;;;;;;5011725;28;20455;-76
2022/04/18 05:45:23;;;;;;;6.70;3.57;;;5.80;99.90;;;;;;5011754;28;20542;-76
2022/04/18 05:47:50;;;;;;;5.50;3.90;;;5.80;99.90;;;;;;5011085;28;20453;-76
2022/04/18 05:50:19;;;;;;;4.53;3.70;;;5.80;99.90;;;;;;5011189;28;20465;-75
2022/04/18 05:52:46;;;;;;;4.00;3.70;;;5.90;99.90;;;;;;5010840;28;20508;-75
2022/04/18 05:55:13;;;;;;;4.80;4.20;;;5.90;99.90;;;;;;5011318;28;21037;-75
2022/04/18 05:57:40;;;;;;;4.63;4.23;;;5.90;99.90;;;;;;5010388;28;20459;-75
2022/04/18 06:00:08;;;;;;;4.47;4.03;;;5.90;99.90;;;;;;5011152;28;20557;-76
2022/04/18 06:02:36;;;;;;;4.83;4.00;;;5.90;99.90;;;;;;5010864;28;20478;-76
2022/04/18 06:05:03;;;;;;;4.10;3.70;;;6.00;99.90;;;;;;5004434;28;20833;-76
2022/04/18 06:07:30;;;;;;;4.93;4.43;;;6.00;99.90;;;;;;5004172;28;20929;-76
2022/04/18 06:09:57;;;;;;;4.83;4.30;;;6.00;99.90;;;;;;4995031;28;20479;-75
2022/04/18 06:12:24;;;;;;;6.33;4.00;;;6.00;99.90;;;;;;5010352;28;20498;-75
2022/04/18 06:14:50;;;;;;;5.13;3.53;;;6.00;99.90;;;;;;5009971;28;20597;-77
2022/04/18 06:17:17;;;;;;;7.47;4.93;;;6.00;99.90;;;;;;5009565;28;20456;-77
2022/04/18 06:19:45;;;;;;;5.93;4.60;;;5.90;99.90;;;;;;5010636;28;20557;-77
2022/04/18 06:22:12;;;;;;;7.67;4.40;;;5.80;99.90;;;;;;5010482;28;20481;-75
2022/04/18 06:24:39;;;;;;;5.83;4.50;;;5.90;99.90;;;;;;5011717;28;20459;-76
2022/04/18 06:27:06;;;;;;;4.03;3.47;;;5.90;99.90;;;;;;5010676;28;20513;-75
2022/04/18 06:29:33;;;;;;;5.37;3.70;;;5.90;99.90;;;;;;5011661;28;20473;-75
2022/04/18 06:32:00;;;;;;;5.30;4.37;;;6.00;99.90;;;;;;5010522;28;20495;-75
2022/04/18 06:34:28;;;;;;;7.33;3.67;;;6.10;99.90;;;;;;5010853;28;20458;-75
2022/04/18 06:36:56;;;;;;;6.70;4.07;;;6.20;99.90;;;;;;5012125;28;20465;-74
2022/04/18 06:39:23;;;;;;;3.83;3.33;;;6.30;99.90;;;;;;5015259;28;20459;-76
2022/04/18 06:41:50;;;;;;;5.33;3.93;;;6.40;99.90;;;;;;5017666;28;20919;-76
2022/04/18 06:44:17;;;;;;;4.03;3.63;;;6.50;99.90;;;;;;5027002;28;20493;-74
2022/04/18 06:46:43;;;;;;;5.57;3.83;;;6.60;99.90;;;;;;5032790;28;20470;-75
2022/04/18 06:49:10;;;;;;;4.53;3.73;;;6.70;99.90;;;;;;5026505;28;20447;-76
2022/04/18 06:51:37;;;;;;;5.60;4.00;;;6.80;99.90;;;;;;5033201;28;20481;-76
2022/04/18 06:54:05;;;;;;;5.60;4.40;;;6.90;99.90;;;;;;5031942;28;20451;-74
2022/04/18 06:59:17;;;;;;;6.17;4.30;;;7.10;99.90;;;;;;5000778;28;21002;-74
2022/04/18 07:01:44;;;;;;;4.57;3.60;;;7.20;99.90;;;;;;5010109;28;21323;-73
2022/04/18 07:04:13;;;;;;;4.10;3.33;;;7.30;99.90;;;;;;5012563;28;20459;-75
2022/04/18 07:06:40;;;;;;;5.23;3.80;;;7.30;99.90;;;;;;5010769;28;20455;-75
2022/04/18 07:09:09;;;;;;;5.57;3.80;;;7.40;99.90;;;;;;5011074;28;20494;-75
2022/04/18 07:11:36;;;;;;;5.17;4.17;;;7.50;99.90;;;;;;5010549;28;20990;-75
2022/04/18 07:14:03;;;;;;;5.00;3.40;;;7.60;99.90;;;;;;5009794;28;20549;-75
2022/04/18 07:16:30;;;;;;;4.50;3.70;;;7.70;99.90;;;;;;5009635;28;20473;-75
2022/04/18 07:18:58;;;;;;;5.57;3.70;;;7.80;99.90;;;;;;5010274;28;20459;-75
2022/04/18 07:21:26;;;;;;;5.93;3.83;;;7.90;99.90;;;;;;5010659;28;20486;-75
2022/04/18 07:23:53;;;;;;;3.53;3.20;;;7.90;99.90;;;;;;5010726;28;20459;-75
2022/04/18 07:26:22;;;;;;;4.07;3.67;;;8.10;99.90;;;;;;5009307;28;20463;-76
2022/04/18 07:28:49;;;;;;;3.47;3.17;;;8.30;99.90;;;;;;5010207;28;20451;-75
2022/04/18 07:31:16;;;;;;;3.80;3.33;;;8.50;99.90;;;;;;5010127;28;20512;-78
2022/04/18 07:33:43;;;;;;;4.47;3.60;;;8.70;99.90;;;;;;5009201;28;20506;-76
2022/04/18 07:36:10;;;;;;;4.23;3.63;;;8.70;99.90;;;;;;5008908;28;20541;-76
2022/04/18 07:38:52;;;;;;;4.37;3.20;;;9.00;99.90;;;;;;5007435;28;21265;-77
2022/04/18 07:41:22;;;;;;;7.47;4.80;;;9.10;99.90;;;;;;5007782;28;20562;-77
2022/04/18 07:43:50;;;;;;;7.50;3.80;;;9.40;99.90;;;;;;5008998;28;20455;-76
2022/04/18 07:46:17;;;;;;;4.33;3.70;;;9.70;99.90;;;;;;5009161;28;20451;-77
2022/04/18 07:48:46;;;;;;;4.20;3.23;;;9.90;99.90;;;;;;5007652;28;20453;-78
2022/04/18 07:53:58;;;;;;;4.70;3.60;;;10.50;98.70;;;;;;5006196;28;20485;-78
2022/04/18 07:56:26;;;;;;;4.50;3.50;;;10.70;98.90;;;;;;5008003;28;20846;-79
2022/04/18 07:58:54;;;;;;;4.20;3.23;;;10.80;98.60;;;;;;5006831;28;20451;-79
2022/04/18 08:01:22;;;;;;;4.07;3.67;;;10.80;97.90;;;;;;5012906;28;21107;-79
2022/04/18 08:03:54;;;;;;;4.63;3.50;;;10.90;97.70;;;;;;5012337;28;20571;-77
2022/04/18 08:06:21;;;;;;;3.97;3.50;;;11.00;98.40;;;;;;5009667;28;20443;-79
2022/04/18 08:08:48;;;;;;;4.73;3.60;;;11.30;98.70;;;;;;5009758;28;20478;-79
2022/04/18 08:11:15;;;;;;;5.17;3.80;;;11.40;96.70;;;;;;5009620;28;20478;-79
2022/04/18 08:13:44;;;;;;;4.20;3.47;;;11.50;97.40;;;;;;5009875;28;21057;-79
2022/04/18 08:16:12;;;;;;;3.60;3.30;;;11.80;96.80;;;;;;5005835;28;20478;-79
2022/04/18 08:18:39;;;;;;;3.30;3.00;;;12.00;96.60;;;;;;5005715;28;20479;-78
2022/04/18 08:21:07;;;;;;;3.93;3.10;;;12.20;95.80;;;;;;4990982;28;20549;-79
2022/04/18 08:23:34;;;;;;;4.03;3.50;;;12.50;95.40;;;;;;5003922;28;20540;-78
2022/04/18 08:26:01;;;;;;;4.40;3.73;;;12.60;95.40;;;;;;4996259;28;20583;-79
2022/04/18 08:28:28;;;;;;;4.43;3.77;;;12.60;95.00;;;;;;5002710;28;20517;-79
2022/04/18 08:30:56;;;;;;;4.67;3.60;;;12.70;95.60;;;;;;4992677;28;21298;-76
2022/04/18 08:33:24;;;;;;;5.00;3.90;;;13.00;94.90;;;;;;5009091;28;20498;-79
2022/04/18 08:35:51;;;;;;;4.53;3.93;;;13.20;94.50;;;;;;5009596;28;20479;-78
2022/04/18 08:38:18;;;;;;;5.27;3.30;;;13.30;94.30;;;;;;4995160;28;20890;-79
2022/04/18 08:40:49;;;;;;;4.80;3.53;;;13.50;94.40;;;;;;5009157;28;20574;-79
2022/04/18 08:43:16;;;;;;;5.10;3.23;;;13.60;93.40;;;;;;5005073;28;21320;-79
2022/04/18 08:45:43;;;;;;;4.50;3.53;;;13.80;93.40;;;;;;5007633;28;20505;-79
2022/04/18 08:53:42;;;;;;;5.63;3.53;;;13.90;92.30;;;;;;4986166;28;20487;-67
2022/04/18 08:56:09;;;;;;;4.47;3.83;;;13.90;91.80;;;;;;4985499;28;20960;-67
2022/04/18 08:58:36;;;;;;;3.67;3.37;;;14.00;92.00;;;;;;4992916;28;20481;-67
2022/04/18 09:01:04;;;;;;;6.40;3.73;;;14.10;92.10;;;;;;5006120;28;20569;-66
2022/04/18 09:03:33;;;;;;;6.80;4.00;;;14.20;95.10;;;;;;5005796;28;20477;-66
2022/04/18 09:06:10;;;;;;;6.87;3.63;;;14.30;94.80;;;;;;5005664;28;20454;-66
2022/04/18 09:08:44;;;;;;;5.33;3.40;;;14.40;93.60;;;;;;5004358;28;20969;-66
2022/04/18 09:11:11;;;;;;;3.97;3.50;;;14.60;90.60;;;;;;5005691;28;20463;-66
2022/04/18 09:13:43;;;;;;;6.90;4.00;;;14.70;91.60;;;;;;5005468;28;20497;-66
2022/04/18 09:16:17;;;;;;;4.97;3.73;;;14.80;91.60;;;;;;5005628;28;20451;-67
2022/04/18 09:18:46;;;;;;;6.20;4.07;;;14.90;91.70;;;;;;5005607;28;20459;-67
2022/04/18 09:21:13;;;;;;;5.10;3.57;;;14.90;92.00;;;;;;5005733;28;20568;-68
2022/04/18 09:23:40;;;;;;;3.93;3.50;;;15.00;93.50;;;;;;5005272;28;20597;-68
2022/04/18 09:26:09;;;;;;;3.67;2.97;;;15.00;93.30;;;;;;5005470;28;20491;-68
2022/04/18 09:28:37;;;;;;;4.47;3.70;;;15.10;91.30;;;;;;5005000;28;20455;-68
2022/04/18 09:31:06;;;;;;;9.97;3.50;;;15.10;91.30;;;;;;5008017;28;20489;-65
2022/04/18 09:33:41;;;;;;;3.90;3.20;;;15.20;90.70;;;;;;5008227;28;20490;-68
2022/04/18 09:36:13;;;;;;;4.60;3.23;;;15.20;90.00;;;;;;5009247;28;20458;-68
2022/04/18 09:38:44;;;;;;;3.90;3.20;;;15.30;89.20;;;;;;5008703;28;20465;-68
2022/04/18 09:41:16;;;;;;;3.83;3.03;;;15.40;90.60;;;;;;5008641;28;20485;-68
2022/04/18 09:43:47;;;;;;;3.67;3.10;;;15.40;90.70;;;;;;5008218;28;20545;-68
2022/04/18 09:46:15;;;;;;;5.50;3.30;;;15.40;90.10;;;;;;5008014;28;21280;-71
2022/04/18 09:48:43;;;;;;;5.63;3.53;;;15.50;88.70;;;;;;5008489;28;20462;-67
2022/04/18 09:51:13;;;;;;;5.87;3.60;;;15.50;90.30;;;;;;5008575;28;20553;-65
2022/04/18 09:53:41;;;;;;;3.80;3.00;;;15.40;90.40;;;;;;5008534;28;20490;-67
2022/04/18 09:56:13;;;;;;;6.43;3.57;;;15.50;88.60;;;;;;5008501;28;21277;-68
2022/04/18 09:58:40;;;;;;;13.30;3.97;;;15.70;90.70;;;;;;5007955;28;20540;-67
2022/04/18 10:01:08;;;;;;;4.90;3.60;;;15.70;88.00;;;;;;5008717;28;20570;-67
2022/04/18 10:03:36;;;;;;;5.17;3.17;;;15.80;84.50;;;;;;5008627;28;20522;-67
2022/04/18 10:06:05;;;;;;;4.90;3.20;;;16.00;84.00;;;;;;5008703;28;20542;-67
2022/04/18 10:08:34;;;;;;;5.63;3.20;;;16.10;86.90;;;;;;5007533;28;20549;-67
2022/04/18 10:11:03;;;;;;;6.00;3.43;;;16.20;86.80;;;;;;5008102;28;20467;-68
2022/04/18 10:13:31;;;;;;;3.83;3.23;;;16.30;87.30;;;;;;5007966;28;20490;-68
2022/04/18 10:15:59;;;;;;;4.80;3.33;;;16.50;84.60;;;;;;5008778;28;20856;-68
2022/04/18 10:18:27;;;;;;;4.37;3.50;;;16.60;83.50;;;;;;5007842;28;20545;-67
2022/04/18 10:21:07;;;;;;;4.77;3.70;;;16.60;85.10;;;;;;5007096;28;20517;-67
2022/04/18 10:23:54;;;;;;;8.70;3.40;;;16.40;84.40;;;;;;5007870;28;20549;-67
2022/04/18 10:27:00;;;;;;;4.00;3.30;;;16.40;83.70;;;;;;5007335;28;20469;-70
2022/04/18 10:29:30;;;;;;;4.40;3.20;;;16.40;85.10;;;;;;5006597;28;20557;-70
2022/04/18 10:32:00;;;;;;;4.50;3.50;;;16.50;81.10;;;;;;5006885;28;20489;-67
2022/04/18 10:34:31;;;;;;;4.27;3.40;;;16.40;81.10;;;;;;5001834;28;20486;-68
2022/04/18 10:37:00;;;;;;;6.50;3.97;;;16.50;79.90;;;;;;5007401;28;20459;-67
2022/04/18 10:39:35;;;;;;;4.90;2.90;;;16.60;80.80;;;;;;5007516;28;20459;-67
2022/04/18 10:42:21;;;;;;;4.80;3.27;;;16.60;82.20;;;;;;5006170;28;21047;-67
2022/04/18 10:44:59;;;;;;;8.03;3.57;;;16.70;82.70;;;;;;5004064;28;20482;-68
2022/04/18 10:47:27;;;;;;;5.00;3.30;;;16.80;81.70;;;;;;5006534;28;20483;-67
2022/04/18 10:50:28;;;;;;;5.80;3.60;;;16.90;77.30;;;;;;5007447;28;20538;-67
2022/04/18 10:53:17;;;;;;;5.30;2.80;;;17.00;82.10;;;;;;4945903;29;21057;-67
2022/04/18 10:56:12;;;;;;;4.10;2.70;;;17.00;81.10;;;;;;4946670;29;20466;-67
2022/04/18 10:58:44;;;;;;;4.50;3.17;;;17.10;79.20;;;;;;4993894;28;20890;-65
2022/04/18 11:01:11;;;;;;;5.53;3.20;;;17.10;81.60;;;;;;5006683;28;20491;-72
2022/04/18 11:03:40;;;;;;;3.60;2.90;;;17.10;81.20;;;;;;5006611;28;20575;-70
2022/04/18 11:06:10;;;;;;;4.10;3.03;;;17.30;78.00;;;;;;5006993;28;20943;-68
2022/04/18 11:08:37;;;;;;;3.93;2.63;;;17.30;78.60;;;;;;5006170;28;20538;-68
2022/04/18 11:11:05;;;;;;;3.83;2.90;;;17.40;79.00;;;;;;5006934;28;20478;-67
2022/04/18 11:13:33;;;;;;;4.03;2.80;;;17.50;78.10;;;;;;5006940;28;20625;-66
2022/04/18 11:16:38;;;;;;;5.80;4.70;;;17.60;76.90;;;;;;5006632;28;20459;-67
2022/04/18 11:19:08;;;;;;;6.43;5.10;;;17.60;77.50;;;;;;5006294;28;20462;-68
2022/04/18 11:22:07;;;;;;;9.90;3.03;;;17.70;78.10;;;;;;5006445;28;20554;-66
2022/04/18 11:24:35;;;;;;;3.70;2.80;;;17.90;77.40;;;;;;5006632;28;20450;-67
2022/04/18 11:27:03;;;;;;;3.93;3.53;;;17.80;73.20;;;;;;5006373;28;20454;-70
2022/04/18 11:29:31;;;;;;;4.53;3.13;;;17.60;75.50;;;;;;5006293;28;20450;-70
2022/04/18 11:31:59;;;;;;;3.50;2.50;;;17.50;75.00;;;;;;5006274;28;20478;-68
2022/04/18 11:34:30;;;;;;;4.70;2.70;;;17.60;75.40;;;-143.14;100.00;56521.75;5006509;28;20583;-68
2022/04/18 11:36:59;;;;;;;4.23;2.80;;;17.70;77.80;;;-143.14;100.00;56521.75;5005495;28;20931;-67
2022/04/18 11:39:43;;;;;;;2.90;2.40;;;17.80;76.30;;;-143.14;100.00;56521.75;5006646;28;20482;-69
2022/04/18 11:42:13;;;;;;;4.23;2.73;;;17.90;76.30;;;;;;5006338;28;20482;-68
2022/04/18 11:44:43;;;;;;;4.00;3.47;;;18.10;74.60;;;;;;5006204;28;20465;-68
2022/04/18 11:47:11;;;;;;;3.30;2.33;;;18.20;69.80;;;;;;5004951;28;20959;-68
2022/04/18 11:49:41;;;;;;;2.93;2.43;;;18.10;73.80;;;;;;5005884;28;20464;-68
2022/04/18 11:52:18;;;;;;;4.93;2.83;;;18.20;71.80;;;;;;5006256;28;20479;-67
2022/04/18 11:54:58;;;;;;;3.20;2.53;;;18.10;71.10;;;;;;5005936;28;20494;-68
2022/04/18 11:57:25;;;;;;;5.57;3.03;;;18.10;71.60;;;;;;5005000;28;20862;-68
2022/04/18 11:59:54;;;;;;;3.13;2.70;;;18.20;73.90;;;;;;5006228;28;20455;-68
2022/04/18 12:08:00;;;;;;;5.90;3.00;;;18.50;76.00;;;;;;5005238;28;20497;-68
2022/04/18 12:10:28;;;;;;;4.20;2.67;;;18.50;73.50;;;;;;5000323;28;20831;-68
2022/04/18 12:12:56;;;;;;;4.00;2.80;;;18.50;72.20;;;;;;4999921;28;20481;-68
2022/04/18 12:15:25;;;;;;;4.97;2.77;;;18.50;72.60;;;;;;5002339;28;20503;-67
2022/04/18 12:17:53;;;;;;;3.50;2.67;;;18.70;72.20;;;;;;5001638;28;20494;-67
2022/04/18 12:20:25;;;;;;;3.87;2.20;;;18.70;72.90;;;;;;4994832;28;20505;-68
2022/04/18 12:22:53;;;;;;;3.43;2.50;;;18.70;70.50;;;;;;5001115;28;20493;-69
2022/04/18 12:25:26;;;;;;;2.80;2.47;;;18.80;74.20;;;;;;5005839;28;20450;-68
2022/04/18 12:27:53;;;;;;;3.23;2.53;;;18.90;72.60;;;;;;5005241;28;20465;-64
2022/04/18 12:30:20;;;;;;;3.30;2.37;;;18.90;74.50;;;;;;5005767;28;20562;-65
2022/04/18 12:32:49;;;;;;;3.57;2.40;;;19.00;73.90;;;;;;5005486;28;20462;-66
2022/04/18 12:35:17;;;;;;;5.23;2.53;;;19.10;71.80;;;;;;5005606;28;20504;-72
2022/04/18 12:37:48;;;;;;;8.60;2.50;;;19.30;71.70;;;;;;5005193;28;20493;-70
2022/04/18 12:40:16;;;;;;;3.37;2.50;;;19.40;73.50;;;;;;5005463;28;20998;-70
2022/04/18 12:42:53;;;;;;;2.97;2.27;;;19.50;69.80;;;;;;5005655;28;20467;-69
2022/04/18 12:45:20;;;;;;;3.80;2.40;;;19.50;72.60;;;;;;5006575;28;20457;-77
2022/04/18 12:47:48;;;;;;;2.90;2.33;;;19.60;71.60;;;;;;5006517;28;20465;-76
2022/04/18 12:50:15;;;;;;;4.73;2.50;;;19.60;69.60;;;;;;5006527;28;20939;-76
2022/04/18 12:52:47;;;;;;;3.50;2.40;;;19.50;72.70;;;;;;5005524;28;21319;-76
2022/04/18 12:55:14;;;;;;;4.27;2.83;;;19.50;68.10;;;;;;5006028;28;20864;-77
2022/04/18 12:57:41;;;;;;;3.37;2.27;;;19.40;65.30;;;;;;5004602;28;20458;-77
2022/04/18 13:00:14;;;;;;;4.07;2.70;;;19.40;68.50;;;;;;5005214;28;20955;-77
2022/04/18 13:02:41;;;;;;;4.30;2.40;;;19.40;69.70;;;;;;5003891;28;21138;-77
2022/04/18 13:05:09;;;;;;;2.90;2.60;;;19.60;69.60;;;;;;5008596;28;20457;-77
2022/04/18 13:07:40;;;;;;;2.47;2.10;;;19.60;69.40;;;;;;5009340;28;20461;-77
2022/04/18 13:10:08;;;;;;;3.70;2.30;;;19.80;71.10;;;;;;5010634;28;20454;-77
2022/04/18 13:12:35;;;;;;;2.63;2.27;;;19.70;69.30;;;;;;5010001;28;20470;-77
2022/04/18 13:15:05;;;;;;;2.73;2.30;;;19.80;71.00;;;;;;5010227;28;20585;-77
2022/04/18 13:17:34;;;;;;;3.07;2.37;;;20.00;70.60;;;;;;5009228;28;21059;-77
2022/04/18 13:20:01;;;;;;;3.07;2.50;;;20.00;69.90;;;;;;5010420;28;20470;-78
2022/04/18 13:22:29;;;;;;;3.00;2.20;;;19.90;67.90;;;;;;5010453;28;20474;-78
2022/04/18 13:24:56;;;;;;;3.63;1.97;;;19.90;70.70;;;;;;5011557;28;20490;-78
2022/04/18 13:27:24;;;;;;;3.43;2.07;;;20.00;71.90;;;;;;5011214;28;20458;-78
2022/04/18 13:29:51;;;;;;;2.70;2.20;;;20.10;71.00;;;;;;5011926;28;20454;-78
2022/04/18 13:32:18;;;;;;;2.60;2.20;;;20.20;69.50;;;;;;5010800;28;20565;-78
2022/04/18 13:34:45;;;;;;;3.03;2.60;;;20.40;70.20;;;;;;5011666;28;20497;-78
2022/04/18 13:37:14;;;;;;;3.17;1.97;;;20.40;69.70;;;;;;5009900;28;20465;-78
2022/04/18 13:39:47;;;;;;;2.50;2.07;;;20.40;69.70;;;;;;5010302;28;20533;-77
2022/04/18 13:42:14;;;;;;;3.83;2.30;;;20.40;71.10;;;;;;5010432;28;20998;-77
2022/04/18 13:44:41;;;;;;;3.20;2.33;;;20.50;72.10;;;;;;5010130;28;20489;-77
2022/04/18 13:47:08;;;;;;;2.10;1.90;;;20.60;71.90;;;;;;5008990;28;20454;-77
2022/04/18 13:49:37;;;;;;;3.63;2.50;;;20.70;70.40;;;;;;5009988;28;20537;-77
2022/04/18 13:52:08;;;;;;;3.13;2.33;;;20.70;66.80;;;;;;5009706;28;20486;-77
2022/04/18 13:54:36;;;;;;;5.40;2.10;;;20.60;68.20;;;;;;5009904;28;20494;-78
2022/04/18 13:57:06;;;;;;;2.60;1.87;;;20.70;68.90;;;;;;5009214;28;20509;-78
2022/04/18 13:59:33;;;;;;;3.23;2.13;;;20.80;71.20;;;;;;5010079;28;20462;-78
2022/04/18 14:02:01;;;;;;;3.23;2.70;;;20.90;69.60;;;;;;5009610;28;20532;-77
2022/04/18 14:04:28;;;;;;;2.70;2.07;;;20.90;65.80;;;;;;5009420;28;20459;-77
2022/04/18 14:06:55;;;;;;;4.47;2.03;;;20.90;66.60;;;;;;5008775;28;20450;-78
2022/04/18 14:09:22;;;;;;;2.50;2.10;;;21.10;69.20;;;;;;5008671;28;20467;-77
2022/04/18 14:11:49;;;;;;;3.37;2.13;;;21.00;66.90;;;;;;5008830;28;20557;-77
2022/04/18 14:22:27;;;;;;;2.00;1.77;;;21.20;66.70;;;;;;4989501;28;20459;-77
2022/04/18 14:24:53;;;;;;;2.23;1.93;;;21.30;67.50;;;;;;5007212;28;20461;-77
2022/04/18 14:27:20;;;;;;;5.33;2.03;;;21.10;66.10;;;;;;5008077;28;20458;-78
2022/04/18 14:29:49;;;;;;;2.40;2.20;;;21.10;69.40;;;;;;5008886;28;20458;-78
2022/04/18 14:32:16;;;;;;;2.30;2.10;;;21.20;67.70;;;;;;5008860;28;20486;-78
2022/04/18 14:34:42;;;;;;;2.80;2.00;;;21.10;65.40;;;;;;5008865;28;20921;-78
2022/04/18 14:37:09;;;;;;;2.13;1.93;;;21.20;71.30;;;;;;5007930;28;20467;-78
2022/04/18 14:39:36;;;;;;;6.57;4.60;;;21.30;70.50;;;;;;5008736;28;20455;-78
2022/04/18 14:42:03;;;;;;;5.87;2.20;;;21.30;68.00;;;;;;5008693;28;20478;-78
2022/04/18 14:44:30;;;;;;;2.37;2.17;;;21.40;69.50;;;;;;5008847;28;20454;-78
2022/04/18 14:46:58;;;;;;;5.67;2.77;;;21.30;67.00;;;;;;5008202;28;20469;-78
2022/04/18 14:49:25;;;;;;;3.87;2.37;;;21.30;69.50;;;;;;5008558;28;20458;-78
2022/04/18 14:51:52;;;;;;;1.67;1.50;;;21.30;67.70;;;;;;5008639;28;20990;-78
2022/04/18 14:54:19;;;;;;;3.27;2.10;;;21.40;67.80;;;;;;5008209;28;20585;-78
2022/04/18 14:56:46;;;;;;;2.70;1.70;;;21.40;66.50;;;;;;5007506;28;20855;-78
2022/04/18 14:59:13;;;;;;;2.40;1.90;;;21.50;66.30;;;;;;5008432;28;20465;-78
2022/04/18 15:01:40;;;;;;;3.83;1.67;;;21.60;67.00;;;;;;5008195;28;20486;-78
2022/04/18 15:04:09;;;;;;;3.10;2.07;;;21.70;66.70;;;;;;5008191;28;20838;-78
2022/04/18 15:06:36;;;;;;;3.73;2.23;;;21.80;66.60;;;;;;5007303;28;20461;-78
2022/04/18 15:09:02;;;;;;;2.27;1.70;;;21.90;68.10;;;;;;5008040;28;20463;-78
2022/04/18 15:11:29;;;;;;;2.33;1.93;;;22.10;67.50;;;;;;5007784;28;20486;-78
2022/04/18 15:13:56;;;;;;;3.97;1.60;;;22.20;65.80;;;;;;5008966;28;20450;-78
2022/04/18 15:16:23;;;;;;;2.90;1.83;;;22.30;65.60;;;;;;5008381;28;21006;-78
2022/04/18 15:18:50;;;;;;;3.40;1.87;;;22.30;65.00;;;;;;5008033;28;20913;-78
2022/04/18 15:21:19;;;;;;;3.07;1.90;;;22.40;65.30;;;;;;5006311;28;20514;-78
2022/04/18 15:23:46;;;;;;;1.63;1.50;;;22.40;68.00;;;;;;5007089;28;20485;-79
2022/04/18 15:26:13;;;;;;;1.80;1.60;;;22.50;66.00;;;;;;5006825;28;20569;-77
2022/04/18 15:28:40;;;;;;;2.90;1.90;;;22.40;64.60;;;;;;5005739;28;20463;-77
2022/04/18 15:33:51;;;;;;;3.27;1.90;;;22.60;67.70;;;;;;5006054;28;20449;-78
2022/04/18 15:36:19;;;;;;;2.57;1.87;;;22.60;64.20;;;;;;5005364;28;20495;-78
2022/04/18 15:38:46;;;;;;;3.00;2.23;;;22.70;66.50;;;;;;5005755;28;20562;-78
2022/04/18 15:41:13;;;;;;;1.73;1.63;;;22.90;65.70;;;;;;5005601;28;20975;-78
2022/04/18 15:43:41;;;;;;;4.00;2.20;;;23.00;65.70;;;;;;5000182;28;20463;-77
2022/04/18 15:46:09;;;;;;;3.73;2.10;;;23.10;64.80;;;;;;5006916;28;20573;-77
2022/04/18 15:48:36;;;;;;;2.20;1.67;;;23.10;64.60;;;;;;5006492;28;20870;-77
2022/04/18 15:51:03;;;;;;;3.10;1.80;;;23.20;63.60;;;;;;5008058;28;20506;-78
2022/04/18 15:53:31;;;;;;;2.30;1.90;;;23.10;62.80;;;;;;5008651;28;20535;-78
2022/04/18 15:55:58;;;;;;;2.13;1.90;;;22.90;64.10;;;;;;5008634;28;20501;-78
2022/04/18 15:58:25;;;;;;;3.00;1.63;;;22.90;63.80;;;;;;5007420;28;20457;-77
2022/04/18 16:00:52;;;;;;;3.20;2.07;;;22.90;65.20;;;;;;5007391;28;20491;-77
2022/04/18 16:03:19;;;;;;;3.67;2.07;;;23.00;65.00;;;;;;5007348;28;21328;-77
2022/04/18 16:05:46;;;;;;;4.93;2.17;;;23.00;64.60;;;;;;5007942;28;20545;-78
2022/04/18 16:08:13;;;;;;;3.67;2.10;;;23.10;62.40;;;;;;5008041;28;20451;-77
2022/04/18 16:10:41;;;;;;;2.47;1.80;;;23.10;63.10;;;;;;5007797;28;20585;-79
2022/04/18 16:13:08;;;;;;;2.33;1.70;;;23.20;64.50;;;;;;5006597;28;20551;-73
2022/04/18 16:15:35;;;;;;;2.43;1.70;;;23.20;64.50;;;;;;5005960;28;20494;-73
2022/04/18 16:18:02;;;;;;;3.50;1.97;;;23.00;63.60;;;;;;5004298;28;20543;-73
2022/04/18 16:20:29;;;;;;;3.07;2.10;;;23.00;65.30;;;;;;5005089;28;21438;-73
2022/04/18 16:22:56;;;;;;;2.33;1.60;;;23.00;64.70;;;;;;5005848;28;20561;-73
2022/04/18 16:25:22;;;;;;;1.90;1.50;;;22.90;65.10;;;;;;5006150;28;20529;-71
2022/04/18 16:27:51;;;;;;;3.27;2.10;;;22.90;65.00;;;;;;5004799;28;20461;-71
2022/04/18 16:33:02;;;;;;;2.80;1.73;;;22.80;65.70;;;;;;5009018;28;20493;-76
2022/04/18 16:35:30;;;;;;;2.13;1.90;;;22.70;64.10;;;;;;4997698;28;21027;-78
2022/04/18 16:37:57;;;;;;;2.60;1.90;;;22.60;63.80;;;;;;4999680;28;20450;-77
2022/04/18 16:40:24;;;;;;;2.33;2.10;;;22.50;64.10;;;;;;5001431;28;20456;-77
2022/04/18 16:45:52;;;;;;;2.70;1.63;;;22.30;66.50;;;;;;5002601;28;20454;-76
2022/04/18 16:48:19;;;;;;;3.53;1.80;;;22.00;65.10;;;;;;5008139;28;20446;-77
2022/04/18 16:50:46;;;;;;;3.40;1.97;;;21.80;66.20;;;;;;5013212;28;20482;-78
2022/04/18 16:53:13;;;;;;;2.60;2.10;;;21.60;66.20;;;;;;5013437;28;20450;-76
2022/04/18 16:55:40;;;;;;;3.93;2.37;;;21.60;65.30;;;;;;5012911;28;20496;-75
2022/04/18 16:58:08;;;;;;;2.47;1.80;;;21.40;64.70;;;;;;5013058;28;20525;-76
2022/04/18 17:00:36;;;;;;;2.70;1.90;;;21.30;65.90;;;;;;4999795;28;20458;-79
2022/04/18 17:03:02;;;;;;;2.33;1.90;;;21.10;65.20;;;;;;4994607;28;20513;-78
2022/04/18 17:05:29;;;;;;;2.10;1.73;;;20.90;66.20;;;;;;4994151;28;20447;-77
2022/04/18 17:07:56;;;;;;;2.60;1.80;;;20.70;66.20;;;;;;5001102;28;21172;-77
2022/04/18 17:10:23;;;;;;;3.23;1.93;;;20.70;66.70;;;;;;5010796;28;20938;-70
2022/04/18 17:12:50;;;;;;;3.83;2.40;;;20.60;67.70;;;;;;5005519;28;20622;-69
2022/04/18 17:15:18;;;;;;;8.90;2.13;;;20.60;67.20;;;;;;4989997;28;20494;-67
2022/04/18 17:17:45;;;;;;;5.90;2.50;;;20.40;68.50;;;;;;4994816;28;20454;-68
2022/04/18 17:20:13;;;;;;;2.63;1.70;;;20.20;71.00;;;;;;5011561;28;20549;-79
2022/04/18 17:22:40;;;;;;;4.77;2.00;;;20.10;68.60;;;;;;5016409;28;20908;-80
2022/04/18 17:25:08;;;;;;;2.93;2.40;;;20.00;69.50;;;;;;5014461;28;20550;-80
2022/04/18 17:27:35;;;;;;;2.33;2.10;;;19.90;69.70;;;;;;5015082;28;20450;-79
2022/04/18 17:30:02;;;;;;;1.60;1.50;;;19.90;68.60;;;;;;5020183;28;20448;-80